sensor_id;sensor_type;location;lat;lon;timestamp;temperature;humidity
26821;DHT22;37186;51.394;5.454;2023-02-27T00:00:34;4.60;70.10
26821;DHT22;37186;51.394;5.454;2023-02-27T00:03:35;4.70;70.10
26821;DHT22;37186;51.394;5.454;2023-02-27T00:06:35;4.60;70.40
26821;DHT22;37186;51.394;5.454;2023-02-27T00:09:36;4.50;70.20
26821;DHT22;37186;51.394;5.454;2023-02-27T00:12:37;4.50;70.30
26821;DHT22;37186;51.394;5.454;2023-02-27T00:15:38;4.50;70.30
26821;DHT22;37186;51.394;5.454;2023-02-27T00:18:40;4.50;70.30
26821;DHT22;37186;51.394;5.454;2023-02-27T00:21:40;4.50;70.20
26821;DHT22;37186;51.394;5.454;2023-02-27T00:24:41;4.40;70.10
26821;DHT22;37186;51.394;5.454;2023-02-27T00:27:42;4.40;70.30
26821;DHT22;37186;51.394;5.454;2023-02-27T00:30:42;4.40;70.30
26821;DHT22;37186;51.394;5.454;2023-02-27T00:33:43;4.40;70.30
26821;DHT22;37186;51.394;5.454;2023-02-27T00:36:43;4.30;70.20
26821;DHT22;37186;51.394;5.454;2023-02-27T00:39:44;4.30;70.30
26821;DHT22;37186;51.394;5.454;2023-02-27T00:42:44;4.30;70.30
26821;DHT22;37186;51.394;5.454;2023-02-27T00:45:47;4.30;70.30
26821;DHT22;37186;51.394;5.454;2023-02-27T00:48:48;4.20;70.40
26821;DHT22;37186;51.394;5.454;2023-02-27T00:51:49;4.30;70.50
26821;DHT22;37186;51.394;5.454;2023-02-27T00:54:49;4.20;70.30
26821;DHT22;37186;51.394;5.454;2023-02-27T00:57:50;4.20;70.30
26821;DHT22;37186;51.394;5.454;2023-02-27T01:00:50;4.20;70.30
26821;DHT22;37186;51.394;5.454;2023-02-27T01:03:51;4.20;70.50
26821;DHT22;37186;51.394;5.454;2023-02-27T01:06:51;4.10;70.30
26821;DHT22;37186;51.394;5.454;2023-02-27T01:09:52;4.10;70.30
26821;DHT22;37186;51.394;5.454;2023-02-27T01:12:52;4.10;70.40
26821;DHT22;37186;51.394;5.454;2023-02-27T01:15:53;4.10;70.20
26821;DHT22;37186;51.394;5.454;2023-02-27T01:18:53;4.10;70.50
26821;DHT22;37186;51.394;5.454;2023-02-27T01:21:54;4.00;70.30
26821;DHT22;37186;51.394;5.454;2023-02-27T01:24:55;4.00;70.20
26821;DHT22;37186;51.394;5.454;2023-02-27T01:27:55;4.00;70.50
26821;DHT22;37186;51.394;5.454;2023-02-27T01:30:56;4.00;70.30
26821;DHT22;37186;51.394;5.454;2023-02-27T01:33:56;4.00;70.50
26821;DHT22;37186;51.394;5.454;2023-02-27T01:36:57;3.90;70.30
26821;DHT22;37186;51.394;5.454;2023-02-27T01:39:58;3.90;70.50
26821;DHT22;37186;51.394;5.454;2023-02-27T01:42:58;3.90;70.50
26821;DHT22;37186;51.394;5.454;2023-02-27T01:45:59;3.90;70.50
26821;DHT22;37186;51.394;5.454;2023-02-27T01:52:11;3.80;70.30
26821;DHT22;37186;51.394;5.454;2023-02-27T01:55:13;3.80;70.40
26821;DHT22;37186;51.394;5.454;2023-02-27T01:58:14;3.80;70.50
26821;DHT22;37186;51.394;5.454;2023-02-27T02:01:15;3.80;70.40
26821;DHT22;37186;51.394;5.454;2023-02-27T02:04:32;3.80;70.60
26821;DHT22;37186;51.394;5.454;2023-02-27T02:07:35;3.70;70.50
26821;DHT22;37186;51.394;5.454;2023-02-27T02:10:38;3.70;70.40
26821;DHT22;37186;51.394;5.454;2023-02-27T02:13:40;3.70;70.40
26821;DHT22;37186;51.394;5.454;2023-02-27T02:17:09;3.70;70.50
26821;DHT22;37186;51.394;5.454;2023-02-27T02:20:25;3.70;70.50
26821;DHT22;37186;51.394;5.454;2023-02-27T02:24:03;3.70;70.60
26821;DHT22;37186;51.394;5.454;2023-02-27T02:34:53;3.60;70.50
26821;DHT22;37186;51.394;5.454;2023-02-27T02:38:22;3.60;70.60
26821;DHT22;37186;51.394;5.454;2023-02-27T02:41:44;3.60;70.50
26821;DHT22;37186;51.394;5.454;2023-02-27T02:45:09;3.60;70.50
26821;DHT22;37186;51.394;5.454;2023-02-27T02:48:30;3.60;70.60
26821;DHT22;37186;51.394;5.454;2023-02-27T02:51:54;3.60;70.40
26821;DHT22;37186;51.394;5.454;2023-02-27T02:55:02;3.50;70.50
26821;DHT22;37186;51.394;5.454;2023-02-27T02:58:11;3.50;70.50
26821;DHT22;37186;51.394;5.454;2023-02-27T03:01:36;3.50;70.50
26821;DHT22;37186;51.394;5.454;2023-02-27T03:04:48;3.50;70.60
26821;DHT22;37186;51.394;5.454;2023-02-27T03:07:59;3.50;70.50
26821;DHT22;37186;51.394;5.454;2023-02-27T03:11:03;3.50;70.50
26821;DHT22;37186;51.394;5.454;2023-02-27T03:14:11;3.50;70.60
26821;DHT22;37186;51.394;5.454;2023-02-27T03:17:18;3.40;70.60
26821;DHT22;37186;51.394;5.454;2023-02-27T03:20:27;3.40;70.50
26821;DHT22;37186;51.394;5.454;2023-02-27T03:23:34;3.40;70.60
26821;DHT22;37186;51.394;5.454;2023-02-27T03:26:39;3.40;70.50
26821;DHT22;37186;51.394;5.454;2023-02-27T03:29:52;3.40;70.50
26821;DHT22;37186;51.394;5.454;2023-02-27T03:33:08;3.40;70.60
26821;DHT22;37186;51.394;5.454;2023-02-27T03:36:19;3.40;70.50
26821;DHT22;37186;51.394;5.454;2023-02-27T03:42:46;3.30;70.60
26821;DHT22;37186;51.394;5.454;2023-02-27T03:48:55;3.30;70.60
26821;DHT22;37186;51.394;5.454;2023-02-27T03:51:55;3.20;70.50
26821;DHT22;37186;51.394;5.454;2023-02-27T03:58:08;3.20;70.60
26821;DHT22;37186;51.394;5.454;2023-02-27T04:01:09;3.20;70.60
26821;DHT22;37186;51.394;5.454;2023-02-27T04:04:13;3.20;70.60
26821;DHT22;37186;51.394;5.454;2023-02-27T04:10:52;3.20;70.60
26821;DHT22;37186;51.394;5.454;2023-02-27T04:17:27;3.10;70.60
26821;DHT22;37186;51.394;5.454;2023-02-27T04:23:53;3.10;70.60
26821;DHT22;37186;51.394;5.454;2023-02-27T04:27:12;3.00;70.50
26821;DHT22;37186;51.394;5.454;2023-02-27T04:30:27;3.00;70.50
26821;DHT22;37186;51.394;5.454;2023-02-27T04:33:48;3.00;70.70
26821;DHT22;37186;51.394;5.454;2023-02-27T04:36:57;3.00;70.70
26821;DHT22;37186;51.394;5.454;2023-02-27T04:40:05;3.00;70.70
26821;DHT22;37186;51.394;5.454;2023-02-27T04:43:09;3.00;70.70
26821;DHT22;37186;51.394;5.454;2023-02-27T04:46:14;3.00;70.70
26821;DHT22;37186;51.394;5.454;2023-02-27T04:49:27;2.90;70.60
26821;DHT22;37186;51.394;5.454;2023-02-27T04:52:34;2.90;70.70
26821;DHT22;37186;51.394;5.454;2023-02-27T04:55:42;2.90;70.70
26821;DHT22;37186;51.394;5.454;2023-02-27T04:58:49;2.90;70.70
26821;DHT22;37186;51.394;5.454;2023-02-27T05:02:07;2.90;70.70
26821;DHT22;37186;51.394;5.454;2023-02-27T05:05:20;2.90;70.70
26821;DHT22;37186;51.394;5.454;2023-02-27T05:08:37;2.90;70.70
26821;DHT22;37186;51.394;5.454;2023-02-27T05:12:13;2.90;70.70
26821;DHT22;37186;51.394;5.454;2023-02-27T05:18:20;2.80;70.70
26821;DHT22;37186;51.394;5.454;2023-02-27T05:21:33;2.80;70.70
26821;DHT22;37186;51.394;5.454;2023-02-27T05:24:39;2.80;70.70
26821;DHT22;37186;51.394;5.454;2023-02-27T05:31:23;2.80;70.70
26821;DHT22;37186;51.394;5.454;2023-02-27T05:34:31;2.80;70.80
26821;DHT22;37186;51.394;5.454;2023-02-27T05:37:48;2.70;70.70
26821;DHT22;37186;51.394;5.454;2023-02-27T05:40:54;2.70;70.70
26821;DHT22;37186;51.394;5.454;2023-02-27T05:44:11;2.70;70.80
26821;DHT22;37186;51.394;5.454;2023-02-27T05:47:17;2.70;70.70
26821;DHT22;37186;51.394;5.454;2023-02-27T05:50:25;2.70;70.80
26821;DHT22;37186;51.394;5.454;2023-02-27T05:53:30;2.70;70.90
26821;DHT22;37186;51.394;5.454;2023-02-27T05:56:35;2.60;70.70
26821;DHT22;37186;51.394;5.454;2023-02-27T05:59:40;2.60;70.70
26821;DHT22;37186;51.394;5.454;2023-02-27T06:02:43;2.60;71.60
26821;DHT22;37186;51.394;5.454;2023-02-27T06:05:45;2.60;70.80
26821;DHT22;37186;51.394;5.454;2023-02-27T06:08:46;2.60;70.80
26821;DHT22;37186;51.394;5.454;2023-02-27T06:11:46;2.60;70.80
26821;DHT22;37186;51.394;5.454;2023-02-27T06:14:47;2.60;70.80
26821;DHT22;37186;51.394;5.454;2023-02-27T06:17:47;2.50;70.80
26821;DHT22;37186;51.394;5.454;2023-02-27T06:20:48;2.50;70.80
26821;DHT22;37186;51.394;5.454;2023-02-27T06:23:49;2.50;70.80
26821;DHT22;37186;51.394;5.454;2023-02-27T06:26:49;2.50;70.90
26821;DHT22;37186;51.394;5.454;2023-02-27T06:29:50;2.50;70.90
26821;DHT22;37186;51.394;5.454;2023-02-27T06:32:50;2.50;70.80
26821;DHT22;37186;51.394;5.454;2023-02-27T06:35:51;2.50;70.90
26821;DHT22;37186;51.394;5.454;2023-02-27T06:38:52;2.50;70.80
26821;DHT22;37186;51.394;5.454;2023-02-27T06:41:53;2.50;70.90
26821;DHT22;37186;51.394;5.454;2023-02-27T06:44:53;2.50;70.80
26821;DHT22;37186;51.394;5.454;2023-02-27T06:47:54;2.40;70.80
26821;DHT22;37186;51.394;5.454;2023-02-27T06:50:55;2.40;70.90
26821;DHT22;37186;51.394;5.454;2023-02-27T06:53:56;2.40;70.90
26821;DHT22;37186;51.394;5.454;2023-02-27T06:56:56;2.40;70.90
26821;DHT22;37186;51.394;5.454;2023-02-27T06:59:57;2.40;70.90
26821;DHT22;37186;51.394;5.454;2023-02-27T07:02:57;2.40;71.00
26821;DHT22;37186;51.394;5.454;2023-02-27T07:05:58;2.40;71.00
26821;DHT22;37186;51.394;5.454;2023-02-27T07:08:59;2.40;71.00
26821;DHT22;37186;51.394;5.454;2023-02-27T07:11:59;2.40;70.90
26821;DHT22;37186;51.394;5.454;2023-02-27T07:15:00;2.40;71.00
26821;DHT22;37186;51.394;5.454;2023-02-27T07:18:01;2.40;71.00
26821;DHT22;37186;51.394;5.454;2023-02-27T07:21:02;2.40;71.00
26821;DHT22;37186;51.394;5.454;2023-02-27T07:24:02;2.40;71.10
26821;DHT22;37186;51.394;5.454;2023-02-27T07:27:04;2.40;71.10
26821;DHT22;37186;51.394;5.454;2023-02-27T07:30:05;2.40;71.10
26821;DHT22;37186;51.394;5.454;2023-02-27T07:33:06;2.40;71.00
26821;DHT22;37186;51.394;5.454;2023-02-27T07:36:06;2.40;71.00
26821;DHT22;37186;51.394;5.454;2023-02-27T07:39:07;2.40;71.10
26821;DHT22;37186;51.394;5.454;2023-02-27T07:42:10;2.40;71.20
26821;DHT22;37186;51.394;5.454;2023-02-27T07:45:10;2.40;71.30
26821;DHT22;37186;51.394;5.454;2023-02-27T07:48:11;2.40;71.30
26821;DHT22;37186;51.394;5.454;2023-02-27T07:51:12;2.40;71.30
26821;DHT22;37186;51.394;5.454;2023-02-27T07:54:12;2.40;71.20
26821;DHT22;37186;51.394;5.454;2023-02-27T07:57:13;2.40;71.30
26821;DHT22;37186;51.394;5.454;2023-02-27T08:00:14;2.40;71.30
26821;DHT22;37186;51.394;5.454;2023-02-27T08:03:15;2.40;71.30
26821;DHT22;37186;51.394;5.454;2023-02-27T08:06:15;2.50;71.40
26821;DHT22;37186;51.394;5.454;2023-02-27T08:09:16;2.50;71.40
26821;DHT22;37186;51.394;5.454;2023-02-27T08:12:17;2.50;71.40
26821;DHT22;37186;51.394;5.454;2023-02-27T08:15:17;2.50;71.60
26821;DHT22;37186;51.394;5.454;2023-02-27T08:18:18;2.50;71.50
26821;DHT22;37186;51.394;5.454;2023-02-27T08:21:19;2.60;71.60
26821;DHT22;37186;51.394;5.454;2023-02-27T08:24:19;2.60;71.70
26821;DHT22;37186;51.394;5.454;2023-02-27T08:27:20;2.60;71.60
26821;DHT22;37186;51.394;5.454;2023-02-27T08:30:20;2.70;71.60
26821;DHT22;37186;51.394;5.454;2023-02-27T08:33:21;2.70;71.70
26821;DHT22;37186;51.394;5.454;2023-02-27T08:36:22;2.70;71.70
26821;DHT22;37186;51.394;5.454;2023-02-27T08:39:23;2.80;71.70
26821;DHT22;37186;51.394;5.454;2023-02-27T08:42:23;2.80;71.70
26821;DHT22;37186;51.394;5.454;2023-02-27T08:45:24;2.80;71.80
26821;DHT22;37186;51.394;5.454;2023-02-27T08:48:24;2.80;71.70
26821;DHT22;37186;51.394;5.454;2023-02-27T08:51:25;2.90;71.80
26821;DHT22;37186;51.394;5.454;2023-02-27T08:54:26;2.90;71.80
26821;DHT22;37186;51.394;5.454;2023-02-27T08:57:26;2.90;71.80
26821;DHT22;37186;51.394;5.454;2023-02-27T09:00:27;3.00;71.90
26821;DHT22;37186;51.394;5.454;2023-02-27T09:03:29;3.00;72.00
26821;DHT22;37186;51.394;5.454;2023-02-27T09:06:31;3.10;72.00
26821;DHT22;37186;51.394;5.454;2023-02-27T09:09:32;3.10;72.00
26821;DHT22;37186;51.394;5.454;2023-02-27T09:12:33;3.10;72.00
26821;DHT22;37186;51.394;5.454;2023-02-27T09:15:34;3.20;72.20
26821;DHT22;37186;51.394;5.454;2023-02-27T09:18:34;3.20;72.00
26821;DHT22;37186;51.394;5.454;2023-02-27T09:21:35;3.20;72.00
26821;DHT22;37186;51.394;5.454;2023-02-27T09:24:36;3.30;72.10
26821;DHT22;37186;51.394;5.454;2023-02-27T09:27:37;3.30;72.20
26821;DHT22;37186;51.394;5.454;2023-02-27T09:30:37;3.40;72.20
26821;DHT22;37186;51.394;5.454;2023-02-27T09:33:38;3.40;72.20
26821;DHT22;37186;51.394;5.454;2023-02-27T09:36:38;3.40;72.30
26821;DHT22;37186;51.394;5.454;2023-02-27T09:39:39;3.50;72.30
26821;DHT22;37186;51.394;5.454;2023-02-27T09:42:41;3.50;72.30
26821;DHT22;37186;51.394;5.454;2023-02-27T09:45:49;3.60;72.30
26821;DHT22;37186;51.394;5.454;2023-02-27T09:48:54;3.60;72.30
26821;DHT22;37186;51.394;5.454;2023-02-27T09:51:56;3.60;72.30
26821;DHT22;37186;51.394;5.454;2023-02-27T09:54:57;3.70;72.40
26821;DHT22;37186;51.394;5.454;2023-02-27T10:01:25;3.80;72.40
26821;DHT22;37186;51.394;5.454;2023-02-27T10:04:33;3.90;72.50
26821;DHT22;37186;51.394;5.454;2023-02-27T10:11:01;3.90;72.50
26821;DHT22;37186;51.394;5.454;2023-02-27T10:17:39;4.00;72.50
26821;DHT22;37186;51.394;5.454;2023-02-27T10:20:55;4.10;72.60
26821;DHT22;37186;51.394;5.454;2023-02-27T10:24:05;4.10;72.60
26821;DHT22;37186;51.394;5.454;2023-02-27T10:27:14;4.20;72.70
26821;DHT22;37186;51.394;5.454;2023-02-27T10:30:27;4.20;72.60
26821;DHT22;37186;51.394;5.454;2023-02-27T10:33:39;4.30;72.60
26821;DHT22;37186;51.394;5.454;2023-02-27T10:36:43;4.30;72.50
26821;DHT22;37186;51.394;5.454;2023-02-27T10:39:47;4.40;72.60
26821;DHT22;37186;51.394;5.454;2023-02-27T10:42:51;4.50;72.70
26821;DHT22;37186;51.394;5.454;2023-02-27T10:45:52;4.50;72.70
26821;DHT22;37186;51.394;5.454;2023-02-27T10:48:53;4.60;72.70
26821;DHT22;37186;51.394;5.454;2023-02-27T10:55:18;4.70;73.70
26821;DHT22;37186;51.394;5.454;2023-02-27T10:58:19;4.70;73.10
26821;DHT22;37186;51.394;5.454;2023-02-27T11:01:20;4.80;72.70
26821;DHT22;37186;51.394;5.454;2023-02-27T11:04:34;4.80;72.80
26821;DHT22;37186;51.394;5.454;2023-02-27T11:07:37;4.90;72.80
26821;DHT22;37186;51.394;5.454;2023-02-27T11:10:55;4.90;72.90
26821;DHT22;37186;51.394;5.454;2023-02-27T11:14:19;5.00;72.90
26821;DHT22;37186;51.394;5.454;2023-02-27T11:17:29;5.00;72.90
26821;DHT22;37186;51.394;5.454;2023-02-27T11:20:34;5.10;72.80
26821;DHT22;37186;51.394;5.454;2023-02-27T11:23:35;5.20;72.90
26821;DHT22;37186;51.394;5.454;2023-02-27T11:26:41;5.20;72.60
26821;DHT22;37186;51.394;5.454;2023-02-27T11:30:00;5.30;72.70
26821;DHT22;37186;51.394;5.454;2023-02-27T11:33:01;5.30;72.80
26821;DHT22;37186;51.394;5.454;2023-02-27T11:36:02;5.40;72.70
26821;DHT22;37186;51.394;5.454;2023-02-27T11:39:03;5.40;72.70
26821;DHT22;37186;51.394;5.454;2023-02-27T11:42:15;5.50;72.80
26821;DHT22;37186;51.394;5.454;2023-02-27T11:48:29;5.60;72.90
26821;DHT22;37186;51.394;5.454;2023-02-27T11:51:55;5.70;72.80
26821;DHT22;37186;51.394;5.454;2023-02-27T11:55:00;5.70;72.80
26821;DHT22;37186;51.394;5.454;2023-02-27T11:58:12;5.70;72.60
26821;DHT22;37186;51.394;5.454;2023-02-27T12:01:20;5.80;72.80
26821;DHT22;37186;51.394;5.454;2023-02-27T12:04:32;5.80;72.90
26821;DHT22;37186;51.394;5.454;2023-02-27T12:11:05;6.00;72.70
26821;DHT22;37186;51.394;5.454;2023-02-27T12:14:27;6.00;72.70
26821;DHT22;37186;51.394;5.454;2023-02-27T12:17:38;6.00;72.50
26821;DHT22;37186;51.394;5.454;2023-02-27T12:21:09;6.10;72.70
26821;DHT22;37186;51.394;5.454;2023-02-27T12:24:20;6.10;72.70
26821;DHT22;37186;51.394;5.454;2023-02-27T12:27:27;6.20;72.90
26821;DHT22;37186;51.394;5.454;2023-02-27T12:30:35;6.30;73.10
26821;DHT22;37186;51.394;5.454;2023-02-27T12:33:51;6.40;73.00
26821;DHT22;37186;51.394;5.454;2023-02-27T12:37:00;6.50;73.10
26821;DHT22;37186;51.394;5.454;2023-02-27T12:40:03;6.60;73.10
26821;DHT22;37186;51.394;5.454;2023-02-27T12:43:21;6.60;73.00
26821;DHT22;37186;51.394;5.454;2023-02-27T12:46:49;6.70;73.10
26821;DHT22;37186;51.394;5.454;2023-02-27T12:50:37;6.80;73.10
26821;DHT22;37186;51.394;5.454;2023-02-27T13:00:15;7.00;72.70
26821;DHT22;37186;51.394;5.454;2023-02-27T13:03:38;7.10;72.30
26821;DHT22;37186;51.394;5.454;2023-02-27T13:06:52;7.10;72.20
26821;DHT22;37186;51.394;5.454;2023-02-27T13:10:09;7.10;72.30
26821;DHT22;37186;51.394;5.454;2023-02-27T13:16:43;7.10;72.10
26821;DHT22;37186;51.394;5.454;2023-02-27T13:20:24;7.10;72.20
26821;DHT22;37186;51.394;5.454;2023-02-27T13:26:33;7.10;72.20
26821;DHT22;37186;51.394;5.454;2023-02-27T13:29:37;7.20;72.20
26821;DHT22;37186;51.394;5.454;2023-02-27T13:32:43;7.20;72.20
26821;DHT22;37186;51.394;5.454;2023-02-27T13:38:57;7.20;72.20
26821;DHT22;37186;51.394;5.454;2023-02-27T13:41:58;7.20;71.80
26821;DHT22;37186;51.394;5.454;2023-02-27T13:45:01;7.20;71.90
26821;DHT22;37186;51.394;5.454;2023-02-27T13:48:10;7.30;72.20
26821;DHT22;37186;51.394;5.454;2023-02-27T13:54:40;7.20;71.90
26821;DHT22;37186;51.394;5.454;2023-02-27T13:57:41;7.30;71.90
26821;DHT22;37186;51.394;5.454;2023-02-27T14:00:58;7.30;71.50
26821;DHT22;37186;51.394;5.454;2023-02-27T14:04:02;7.30;71.10
26821;DHT22;37186;51.394;5.454;2023-02-27T14:07:08;7.30;71.60
26821;DHT22;37186;51.394;5.454;2023-02-27T14:10:17;7.30;71.20
26821;DHT22;37186;51.394;5.454;2023-02-27T14:19:49;7.30;71.70
26821;DHT22;37186;51.394;5.454;2023-02-27T14:23:14;7.40;72.20
26821;DHT22;37186;51.394;5.454;2023-02-27T14:26:18;7.50;72.70
26821;DHT22;37186;51.394;5.454;2023-02-27T14:29:26;7.60;72.60
26821;DHT22;37186;51.394;5.454;2023-02-27T14:32:32;7.70;72.80
26821;DHT22;37186;51.394;5.454;2023-02-27T14:35:35;7.80;72.80
26821;DHT22;37186;51.394;5.454;2023-02-27T14:38:35;7.90;72.40
26821;DHT22;37186;51.394;5.454;2023-02-27T14:45:01;8.00;72.30
26821;DHT22;37186;51.394;5.454;2023-02-27T14:48:02;8.00;72.20
26821;DHT22;37186;51.394;5.454;2023-02-27T14:51:07;8.00;72.20
26821;DHT22;37186;51.394;5.454;2023-02-27T14:57:23;8.10;71.60
26821;DHT22;37186;51.394;5.454;2023-02-27T15:03:44;8.10;71.40
26821;DHT22;37186;51.394;5.454;2023-02-27T15:06:48;8.10;71.60
26821;DHT22;37186;51.394;5.454;2023-02-27T15:09:52;8.10;71.70
26821;DHT22;37186;51.394;5.454;2023-02-27T15:12:54;8.10;71.50
26821;DHT22;37186;51.394;5.454;2023-02-27T15:16:20;8.10;72.20
26821;DHT22;37186;51.394;5.454;2023-02-27T15:19:28;8.10;71.50
26821;DHT22;37186;51.394;5.454;2023-02-27T15:22:35;8.10;71.40
26821;DHT22;37186;51.394;5.454;2023-02-27T15:25:37;8.10;71.60
26821;DHT22;37186;51.394;5.454;2023-02-27T15:28:38;8.10;71.50
26821;DHT22;37186;51.394;5.454;2023-02-27T15:31:39;8.20;71.70
26821;DHT22;37186;51.394;5.454;2023-02-27T15:34:42;8.20;72.00
26821;DHT22;37186;51.394;5.454;2023-02-27T15:37:51;8.30;72.10
26821;DHT22;37186;51.394;5.454;2023-02-27T15:40:52;8.40;72.20
26821;DHT22;37186;51.394;5.454;2023-02-27T15:43:52;8.50;72.50
26821;DHT22;37186;51.394;5.454;2023-02-27T15:46:54;8.60;72.40
26821;DHT22;37186;51.394;5.454;2023-02-27T15:53:19;8.70;72.20
26821;DHT22;37186;51.394;5.454;2023-02-27T15:56:25;8.70;71.60
26821;DHT22;37186;51.394;5.454;2023-02-27T15:59:28;8.70;70.80
26821;DHT22;37186;51.394;5.454;2023-02-27T16:02:40;8.70;71.70
26821;DHT22;37186;51.394;5.454;2023-02-27T16:05:42;8.70;71.50
26821;DHT22;37186;51.394;5.454;2023-02-27T16:08:51;8.70;71.50
26821;DHT22;37186;51.394;5.454;2023-02-27T16:15:28;8.70;70.00
26821;DHT22;37186;51.394;5.454;2023-02-27T16:18:35;8.60;71.00
26821;DHT22;37186;51.394;5.454;2023-02-27T16:21:37;8.60;71.10
26821;DHT22;37186;51.394;5.454;2023-02-27T16:24:38;8.60;71.00
26821;DHT22;37186;51.394;5.454;2023-02-27T16:27:38;8.60;70.70
26821;DHT22;37186;51.394;5.454;2023-02-27T16:30:40;8.60;70.90
26821;DHT22;37186;51.394;5.454;2023-02-27T16:33:41;8.60;71.00
26821;DHT22;37186;51.394;5.454;2023-02-27T16:37:04;8.50;70.80
26821;DHT22;37186;51.394;5.454;2023-02-27T16:43:13;8.50;70.70
26821;DHT22;37186;51.394;5.454;2023-02-27T16:46:16;8.50;69.50
26821;DHT22;37186;51.394;5.454;2023-02-27T16:49:27;8.40;70.30
26821;DHT22;37186;51.394;5.454;2023-02-27T16:52:29;8.40;70.50
26821;DHT22;37186;51.394;5.454;2023-02-27T16:55:30;8.30;70.50
26821;DHT22;37186;51.394;5.454;2023-02-27T16:58:31;8.20;70.50
26821;DHT22;37186;51.394;5.454;2023-02-27T17:01:32;8.20;70.20
26821;DHT22;37186;51.394;5.454;2023-02-27T17:04:33;8.10;70.50
26821;DHT22;37186;51.394;5.454;2023-02-27T17:07:36;8.10;70.30
26821;DHT22;37186;51.394;5.454;2023-02-27T17:10:37;8.00;70.30
26821;DHT22;37186;51.394;5.454;2023-02-27T17:13:38;8.00;70.50
26821;DHT22;37186;51.394;5.454;2023-02-27T17:16:39;7.90;70.30
26821;DHT22;37186;51.394;5.454;2023-02-27T17:19:40;7.90;70.50
26821;DHT22;37186;51.394;5.454;2023-02-27T17:22:42;7.80;70.50
26821;DHT22;37186;51.394;5.454;2023-02-27T17:25:44;7.80;70.40
26821;DHT22;37186;51.394;5.454;2023-02-27T17:28:45;7.70;70.40
26821;DHT22;37186;51.394;5.454;2023-02-27T17:31:45;7.70;70.40
26821;DHT22;37186;51.394;5.454;2023-02-27T17:34:46;7.60;70.10
26821;DHT22;37186;51.394;5.454;2023-02-27T17:37:46;7.60;70.50
26821;DHT22;37186;51.394;5.454;2023-02-27T17:40:47;7.60;70.30
26821;DHT22;37186;51.394;5.454;2023-02-27T17:43:51;7.50;70.30
26821;DHT22;37186;51.394;5.454;2023-02-27T17:46:53;7.50;70.40
26821;DHT22;37186;51.394;5.454;2023-02-27T17:49:53;7.40;70.40
26821;DHT22;37186;51.394;5.454;2023-02-27T17:52:54;7.40;70.50
26821;DHT22;37186;51.394;5.454;2023-02-27T17:55:54;7.30;70.40
26821;DHT22;37186;51.394;5.454;2023-02-27T17:58:55;7.20;70.40
26821;DHT22;37186;51.394;5.454;2023-02-27T18:01:56;7.20;70.40
26821;DHT22;37186;51.394;5.454;2023-02-27T18:04:56;7.20;70.30
26821;DHT22;37186;51.394;5.454;2023-02-27T18:07:57;7.10;70.20
26821;DHT22;37186;51.394;5.454;2023-02-27T18:10:58;7.10;70.30
26821;DHT22;37186;51.394;5.454;2023-02-27T18:13:59;7.00;70.30
26821;DHT22;37186;51.394;5.454;2023-02-27T18:16:59;7.00;70.10
26821;DHT22;37186;51.394;5.454;2023-02-27T18:20:00;6.90;70.10
26821;DHT22;37186;51.394;5.454;2023-02-27T18:23:01;6.90;70.20
26821;DHT22;37186;51.394;5.454;2023-02-27T18:26:01;6.80;70.10
26821;DHT22;37186;51.394;5.454;2023-02-27T18:29:07;6.80;70.30
26821;DHT22;37186;51.394;5.454;2023-02-27T18:32:08;6.70;70.20
26821;DHT22;37186;51.394;5.454;2023-02-27T18:35:08;6.70;70.00
26821;DHT22;37186;51.394;5.454;2023-02-27T18:38:09;6.70;70.30
26821;DHT22;37186;51.394;5.454;2023-02-27T18:41:10;6.60;70.20
26821;DHT22;37186;51.394;5.454;2023-02-27T18:44:11;6.60;70.20
26821;DHT22;37186;51.394;5.454;2023-02-27T18:47:12;6.50;70.10
26821;DHT22;37186;51.394;5.454;2023-02-27T18:50:13;6.50;70.20
26821;DHT22;37186;51.394;5.454;2023-02-27T18:53:13;6.40;70.10
26821;DHT22;37186;51.394;5.454;2023-02-27T18:56:16;6.40;70.20
26821;DHT22;37186;51.394;5.454;2023-02-27T18:59:16;6.30;70.20
26821;DHT22;37186;51.394;5.454;2023-02-27T19:02:18;6.30;70.20
26821;DHT22;37186;51.394;5.454;2023-02-27T19:05:21;6.30;70.30
26821;DHT22;37186;51.394;5.454;2023-02-27T19:08:22;6.20;70.20
26821;DHT22;37186;51.394;5.454;2023-02-27T19:11:29;6.20;70.20
26821;DHT22;37186;51.394;5.454;2023-02-27T19:14:33;6.10;70.20
26821;DHT22;37186;51.394;5.454;2023-02-27T19:17:35;6.10;70.00
26821;DHT22;37186;51.394;5.454;2023-02-27T19:20:35;6.10;70.10
26821;DHT22;37186;51.394;5.454;2023-02-27T19:23:36;6.00;70.10
26821;DHT22;37186;51.394;5.454;2023-02-27T19:26:38;6.00;70.20
26821;DHT22;37186;51.394;5.454;2023-02-27T19:29:39;6.00;70.20
26821;DHT22;37186;51.394;5.454;2023-02-27T19:32:39;5.90;70.20
26821;DHT22;37186;51.394;5.454;2023-02-27T19:35:40;5.90;70.30
26821;DHT22;37186;51.394;5.454;2023-02-27T19:38:41;5.90;70.40
26821;DHT22;37186;51.394;5.454;2023-02-27T19:41:42;5.80;70.30
26821;DHT22;37186;51.394;5.454;2023-02-27T19:44:43;5.80;70.30
26821;DHT22;37186;51.394;5.454;2023-02-27T19:47:44;5.80;70.30
26821;DHT22;37186;51.394;5.454;2023-02-27T19:50:45;5.70;70.10
26821;DHT22;37186;51.394;5.454;2023-02-27T19:53:47;5.70;70.30
26821;DHT22;37186;51.394;5.454;2023-02-27T19:56:47;5.70;70.30
26821;DHT22;37186;51.394;5.454;2023-02-27T19:59:48;5.60;70.20
26821;DHT22;37186;51.394;5.454;2023-02-27T20:02:48;5.60;70.30
26821;DHT22;37186;51.394;5.454;2023-02-27T20:05:49;5.60;70.40
26821;DHT22;37186;51.394;5.454;2023-02-27T20:08:51;5.60;70.30
26821;DHT22;37186;51.394;5.454;2023-02-27T20:11:53;5.50;70.20
26821;DHT22;37186;51.394;5.454;2023-02-27T20:14:56;5.50;70.40
26821;DHT22;37186;51.394;5.454;2023-02-27T20:17:56;5.40;70.30
26821;DHT22;37186;51.394;5.454;2023-02-27T20:21:09;5.50;70.40
26821;DHT22;37186;51.394;5.454;2023-02-27T20:24:10;5.40;70.30
26821;DHT22;37186;51.394;5.454;2023-02-27T20:27:11;5.40;70.40
26821;DHT22;37186;51.394;5.454;2023-02-27T20:30:12;5.40;70.30
26821;DHT22;37186;51.394;5.454;2023-02-27T20:33:12;5.30;70.30
26821;DHT22;37186;51.394;5.454;2023-02-27T20:36:14;5.30;70.30
26821;DHT22;37186;51.394;5.454;2023-02-27T20:39:15;5.30;70.30
26821;DHT22;37186;51.394;5.454;2023-02-27T20:42:16;5.20;70.30
26821;DHT22;37186;51.394;5.454;2023-02-27T20:45:17;5.20;70.30
26821;DHT22;37186;51.394;5.454;2023-02-27T20:48:17;5.20;70.30
26821;DHT22;37186;51.394;5.454;2023-02-27T20:51:21;5.20;70.30
26821;DHT22;37186;51.394;5.454;2023-02-27T20:54:21;5.10;70.30
26821;DHT22;37186;51.394;5.454;2023-02-27T20:57:22;5.10;70.30
26821;DHT22;37186;51.394;5.454;2023-02-27T21:00:23;5.10;70.40
26821;DHT22;37186;51.394;5.454;2023-02-27T21:03:25;5.00;70.20
26821;DHT22;37186;51.394;5.454;2023-02-27T21:06:26;5.00;70.30
26821;DHT22;37186;51.394;5.454;2023-02-27T21:09:27;5.00;70.30
26821;DHT22;37186;51.394;5.454;2023-02-27T21:12:27;5.00;70.30
26821;DHT22;37186;51.394;5.454;2023-02-27T21:15:28;5.00;70.40
26821;DHT22;37186;51.394;5.454;2023-02-27T21:18:30;4.90;70.30
26821;DHT22;37186;51.394;5.454;2023-02-27T21:21:33;4.90;70.30
26821;DHT22;37186;51.394;5.454;2023-02-27T21:24:33;4.90;70.30
26821;DHT22;37186;51.394;5.454;2023-02-27T21:27:34;4.80;70.30